Time;durP1;ratioP1;P1;durP2;ratioP2;P2;SDS_P1;SDS_P2;PMS_P1;PMS_P2;Temp;Humidity;BMP_temperature;BMP_pressure;BME280_temperature;BME280_humidity;BME280_pressure;Samples;Min_cycle;Max_cycle;Signal;HPM_P1;HPM_P2
2023/08/23 06:14:24;;;;;;;6.95;4.68;;;;;;;;;;12751210;22;8036308;-84
2023/08/23 06:19:26;;;;;;;8.05;5.15;;;;;;;;;;12994698;23;20004;-86
2023/08/23 06:24:29;;;;;;;5.75;4.78;;;;;;;;;;12966170;22;20006;-85
2023/08/23 06:29:30;;;;;;;9.65;6.28;;;;;;;;;;12989515;23;20059;-85
2023/08/23 06:34:31;;;;;;;6.50;4.75;;;;;;;;;;12980404;23;20035;-86
2023/08/23 06:39:32;;;;;;;9.00;5.22;;;;;;;;;;12984020;22;19996;-86
2023/08/23 06:44:33;;;;;;;14.85;8.82;;;;;;;;;;12982262;23;20004;-85
2023/08/23 06:49:35;;;;;;;13.82;9.65;;;;;;;;;;12984662;22;20000;-85
2023/08/23 06:54:36;;;;;;;6.85;4.55;;;;;;;;;;12982983;23;20014;-86
2023/08/23 06:59:37;;;;;;;6.97;4.53;;;;;;;;;;12959529;23;20009;-85
2023/08/23 07:04:41;;;;;;;5.68;3.70;;;;;;;;;;12953320;23;20004;-86
2023/08/23 07:09:43;;;;;;;3.83;3.08;;;;;;;;;;12941632;23;20004;-87
2023/08/23 07:14:49;;;;;;;5.70;3.20;;;;;;;;;;12962467;22;20019;-86
2023/08/23 07:19:50;;;;;;;7.00;3.92;;;;;;;;;;12981550;22;20004;-86
2023/08/23 07:24:51;;;;;;;7.75;4.95;;;;;;;;;;12979197;22;20014;-85
2023/08/23 07:29:52;;;;;;;7.80;4.53;;;;;;;;;;12982351;22;20003;-86
2023/08/23 07:34:53;;;;;;;6.30;4.53;;;;;;;;;;13009683;22;20038;-86
2023/08/23 07:39:55;;;;;;;9.75;6.15;;;;;;;;;;12981978;22;20030;-87
2023/08/23 07:44:57;;;;;;;6.30;4.80;;;;;;;;;;12975414;22;20003;-85
2023/08/23 07:49:58;;;;;;;7.78;5.50;;;;;;;;;;12975269;22;20008;-87
2023/08/23 07:54:59;;;;;;;10.13;6.47;;;;;;;;;;12972657;22;20011;-87
2023/08/23 08:00:00;;;;;;;9.77;7.22;;;;;;;;;;12974685;22;20031;-86
2023/08/23 08:05:02;;;;;;;8.18;5.80;;;;;;;;;;12976587;22;20449;-87
2023/08/23 08:10:03;;;;;;;11.23;6.20;;;;;;;;;;12992405;22;20377;-87
2023/08/23 08:15:06;;;;;;;9.18;5.57;;;;;;;;;;12975858;22;20007;-86
2023/08/23 08:20:09;;;;;;;12.80;6.47;;;;;;;;;;12977092;22;20004;-87
2023/08/23 08:25:10;;;;;;;8.02;5.18;;;;;;;;;;12974998;22;20435;-85
2023/08/23 08:30:11;;;;;;;8.30;5.28;;;;;;;;;;12972664;22;20026;-86
2023/08/23 08:35:12;;;;;;;9.70;5.75;;;;;;;;;;12973365;22;20025;-86
2023/08/23 08:40:13;;;;;;;11.68;6.63;;;;;;;;;;12998445;22;20309;-86
2023/08/23 08:45:14;;;;;;;10.07;6.32;;;;;;;;;;13013159;22;20012;-85
2023/08/23 08:50:15;;;;;;;11.32;7.32;;;;;;;;;;12986735;22;20094;-86
2023/08/23 08:55:17;;;;;;;9.52;6.40;;;;;;;;;;12976389;22;20395;-86
2023/08/23 09:00:18;;;;;;;10.40;7.80;;;;;;;;;;12974634;22;20084;-86
2023/08/23 09:05:20;;;;;;;11.20;7.57;;;;;;;;;;12977486;22;20030;-86
2023/08/23 09:10:22;;;;;;;10.90;5.32;;;;;;;;;;12983341;22;19999;-86
2023/08/23 09:15:23;;;;;;;7.65;6.32;;;;;;;;;;13018354;22;20012;-86
2023/08/23 09:20:25;;;;;;;9.32;6.80;;;;;;;;;;12976633;22;20345;-86
2023/08/23 09:25:26;;;;;;;12.20;7.55;;;;;;;;;;12973574;22;20399;-87
2023/08/23 09:30:27;;;;;;;9.82;5.15;;;;;;;;;;12969689;22;20000;-86
2023/08/23 09:35:29;;;;;;;8.30;5.35;;;;;;;;;;12972549;22;20004;-86
2023/08/23 09:40:30;;;;;;;8.15;6.45;;;;;;;;;;12970702;22;20007;-85
2023/08/23 09:45:32;;;;;;;7.13;4.80;;;;;;;;;;12975468;22;19999;-86
2023/08/23 09:50:33;;;;;;;7.53;4.18;;;;;;;;;;12971569;22;20004;-86
2023/08/23 09:55:34;;;;;;;8.15;4.72;;;;;;;;;;12970895;22;20000;-86
2023/08/23 10:00:36;;;;;;;8.65;4.68;;;;;;;;;;12999496;22;20323;-86
2023/08/23 10:05:37;;;;;;;6.15;5.07;;;;;;;;;;12975809;22;20093;-86
2023/08/23 10:10:39;;;;;;;10.30;5.97;;;;;;;;;;12995950;22;20000;-86
2023/08/23 10:15:41;;;;;;;9.60;4.85;;;;;;;;;;12976727;22;20019;-85
2023/08/23 10:20:43;;;;;;;8.10;5.25;;;;;;;;;;12979432;22;20037;-87
2023/08/23 10:25:44;;;;;;;10.90;7.57;;;;;;;;;;13005509;22;20022;-85
2023/08/23 10:30:47;;;;;;;11.95;6.95;;;;;;;;;;13005166;22;19995;-87
2023/08/23 10:35:48;;;;;;;8.05;5.50;;;;;;;;;;12980743;22;20087;-86
2023/08/23 10:40:49;;;;;;;7.97;5.10;;;;;;;;;;12972703;22;20308;-86
2023/08/23 10:46:18;;;;;;;7.90;4.38;;;;;;;;;;12988612;22;20000;-86
2023/08/23 10:51:19;;;;;;;8.15;5.38;;;;;;;;;;13000286;22;20004;-87
2023/08/23 10:56:20;;;;;;;9.70;6.63;;;;;;;;;;13010477;22;20458;-86
2023/08/23 11:01:21;;;;;;;11.85;7.70;;;;;;;;;;12980945;22;20014;-86
2023/08/23 11:06:22;;;;;;;8.38;6.28;;;;;;;;;;12981418;22;20015;-86
2023/08/23 11:11:27;;;;;;;7.78;5.25;;;;;;;;;;12987877;22;20325;-86
2023/08/23 11:16:29;;;;;;;9.50;5.97;;;;;;;;;;12986847;22;20008;-86
2023/08/23 11:21:33;;;;;;;8.38;5.65;;;;;;;;;;12982647;22;20010;-85
2023/08/23 11:26:34;;;;;;;8.48;6.75;;;;;;;;;;12971638;22;20014;-86
2023/08/23 11:31:36;;;;;;;8.45;5.63;;;;;;;;;;12971352;22;20023;-86
2023/08/23 11:36:37;;;;;;;8.05;5.72;;;;;;;;;;12972299;22;20003;-86
2023/08/23 11:41:38;;;;;;;7.00;5.60;;;;;;;;;;12974705;22;20004;-86
2023/08/23 11:46:40;;;;;;;10.80;7.68;;;;;;;;;;12976396;22;20368;-87
2023/08/23 11:51:44;;;;;;;7.75;6.88;;;;;;;;;;13004656;22;20066;-84
2023/08/23 11:56:45;;;;;;;7.35;6.60;;;;;;;;;;12974247;22;20030;-86
2023/08/23 12:01:46;;;;;;;10.07;9.07;;;;;;;;;;12974527;22;20004;-85
2023/08/23 12:06:47;;;;;;;9.80;8.88;;;;;;;;;;12976301;22;20037;-86
2023/08/23 12:11:48;;;;;;;9.02;8.13;;;;;;;;;;12977166;22;20351;-86
2023/08/23 12:16:49;;;;;;;10.60;8.10;;;;;;;;;;13006752;22;20019;-86
2023/08/23 12:21:50;;;;;;;7.80;7.00;;;;;;;;;;13000210;22;20030;-86
2023/08/23 12:26:52;;;;;;;7.93;7.10;;;;;;;;;;13003058;22;20432;-86
2023/08/23 12:31:53;;;;;;;8.55;7.53;;;;;;;;;;12976247;22;20019;-86
2023/08/23 12:36:54;;;;;;;7.43;6.70;;;;;;;;;;12980446;22;20030;-86
2023/08/23 12:41:55;;;;;;;9.93;7.50;;;;;;;;;;12980029;22;20053;-85
2023/08/23 12:46:56;;;;;;;8.60;6.68;;;;;;;;;;12979788;22;20004;-85
2023/08/23 12:51:57;;;;;;;7.05;5.57;;;;;;;;;;12981724;22;20007;-87
2023/08/23 12:56:58;;;;;;;6.93;4.93;;;;;;;;;;12978555;22;20007;-87
2023/08/23 13:01:59;;;;;;;5.85;5.22;;;;;;;;;;13002929;22;20007;-86
2023/08/23 13:07:00;;;;;;;7.07;4.85;;;;;;;;;;12999870;22;20419;-86
2023/08/23 13:12:01;;;;;;;8.40;5.70;;;;;;;;;;12977952;22;20379;-86
2023/08/23 13:17:03;;;;;;;5.80;4.90;;;;;;;;;;13013768;22;20042;-86
2023/08/23 13:22:04;;;;;;;6.20;4.68;;;;;;;;;;12980684;22;20030;-86
2023/08/23 13:27:05;;;;;;;10.35;5.80;;;;;;;;;;12981987;22;20000;-86
2023/08/23 13:32:06;;;;;;;5.10;4.43;;;;;;;;;;12982806;22;20004;-86
2023/08/23 13:37:07;;;;;;;7.50;5.20;;;;;;;;;;12982295;22;20388;-88
2023/08/23 13:42:08;;;;;;;8.63;4.50;;;;;;;;;;12979951;22;20403;-87
2023/08/23 13:47:09;;;;;;;6.13;4.20;;;;;;;;;;12978042;22;20051;-86
2023/08/23 13:52:10;;;;;;;8.07;5.03;;;;;;;;;;12982914;22;20026;-86
2023/08/23 13:57:12;;;;;;;7.13;4.43;;;;;;;;;;13015049;22;20042;-86
2023/08/23 14:02:13;;;;;;;8.73;5.38;;;;;;;;;;12987902;22;20007;-86
2023/08/23 14:07:20;;;;;;;5.68;4.28;;;;;;;;;;12990312;22;20006;-86
2023/08/23 14:12:21;;;;;;;6.28;4.10;;;;;;;;;;12982830;22;20074;-86
2023/08/23 14:17:22;;;;;;;9.30;4.50;;;;;;;;;;12988524;22;20440;-86
2023/08/23 14:22:23;;;;;;;4.65;3.50;;;;;;;;;;12988818;22;20141;-86
2023/08/23 14:27:24;;;;;;;7.50;6.15;;;;;;;;;;12980844;22;20079;-86
2023/08/23 14:32:27;;;;;;;6.43;3.85;;;;;;;;;;12980613;22;20079;-86
2023/08/23 14:37:29;;;;;;;5.30;3.20;;;;;;;;;;12986324;22;20381;-86
2023/08/23 14:42:30;;;;;;;4.03;2.70;;;;;;;;;;13032041;22;20325;-85
2023/08/23 14:47:31;;;;;;;7.57;6.40;;;;;;;;;;12973654;22;20038;-86
2023/08/23 14:52:32;;;;;;;7.20;3.95;;;;;;;;;;12968522;22;20447;-84
2023/08/23 14:57:33;;;;;;;5.82;4.43;;;;;;;;;;12970414;22;20032;-85
2023/08/23 15:02:34;;;;;;;5.93;3.85;;;;;;;;;;13004487;22;20310;-85
2023/08/23 15:07:36;;;;;;;4.18;3.03;;;;;;;;;;12975658;22;20003;-85
2023/08/23 15:12:37;;;;;;;5.32;3.80;;;;;;;;;;12978455;22;20024;-86
2023/08/23 15:17:38;;;;;;;3.90;2.65;;;;;;;;;;12976230;22;20011;-86
2023/08/23 15:22:39;;;;;;;5.03;3.47;;;;;;;;;;13008380;22;20065;-85
2023/08/23 15:27:40;;;;;;;5.90;2.60;;;;;;;;;;12975024;22;20011;-85
2023/08/23 15:32:42;;;;;;;5.43;3.08;;;;;;;;;;12980418;22;20394;-85
2023/08/23 15:37:47;;;;;;;5.47;2.70;;;;;;;;;;12980642;22;20003;-86
2023/08/23 15:42:48;;;;;;;5.07;2.80;;;;;;;;;;12978636;22;20339;-86
2023/08/23 15:47:49;;;;;;;5.88;4.35;;;;;;;;;;12978936;22;20030;-85
2023/08/23 15:52:50;;;;;;;4.78;2.35;;;;;;;;;;12976041;22;20000;-85
2023/08/23 15:57:51;;;;;;;3.85;2.63;;;;;;;;;;13007083;22;20015;-86
2023/08/23 16:02:52;;;;;;;3.17;2.40;;;;;;;;;;12979364;22;20008;-88
2023/08/23 16:07:53;;;;;;;2.55;2.17;;;;;;;;;;12975625;22;20019;-86
2023/08/23 16:12:54;;;;;;;2.95;2.13;;;;;;;;;;12977628;22;20424;-86
2023/08/23 16:17:55;;;;;;;4.38;2.20;;;;;;;;;;12985524;22;20016;-85
2023/08/23 16:23:05;;;;;;;4.45;2.33;;;;;;;;;;13007565;22;20010;-85
2023/08/23 16:28:26;;;;;;;5.15;2.55;;;;;;;;;;13029275;22;20011;-86
2023/08/23 16:33:47;;;;;;;3.85;2.15;;;;;;;;;;12977642;22;20004;-86
2023/08/23 16:38:52;;;;;;;6.18;2.58;;;;;;;;;;13001850;22;20007;-85
2023/08/23 16:44:09;;;;;;;9.77;3.22;;;;;;;;;;12998660;22;20380;-85
2023/08/23 16:49:14;;;;;;;9.02;2.22;;;;;;;;;;12943272;22;20231;-86
2023/08/23 16:54:26;;;;;;;3.92;2.42;;;;;;;;;;12999774;22;20074;-86
2023/08/23 17:51:46;;;;;;;2.92;1.73;;;;;;;;;;12739252;23;20013;-87
2023/08/23 17:57:32;;;;;;;3.63;2.80;;;;;;;;;;12798024;23;20012;-87
2023/08/23 18:03:20;;;;;;;4.30;2.40;;;;;;;;;;12738958;23;20451;-87
2023/08/23 18:08:22;;;;;;;9.73;3.55;;;;;;;;;;12883335;23;20020;-86
